Pinedale, Arizona
Current Conditions -  °F | °C
As of 1:55 PM on Sunday 21 Dec 2014 (Local Time) from KSOW Reporting Station
Clear Clear  
Wind Chill: 50°   Ceiling: Unl
Heat Index: 50°   Visibility: 10mi
Dew Point: 27°   Wind: 0mph
Humidity: 40%   Direction: NA
Pressure: 30.09"   Gusts: NA
Location:  34.31°N, 110.25°W
Report Text: KSOW 212055Z AUTO 00000KT 10SM CLR 10/M03 A3009 RMK AO2
Loading
Personal Weather Stations






























Interactive Weather Map New forecast layout! Learn more

10-Day Weather Forecast

Advertisements
Track Severe Weather on mobile